sensor_id;sensor_type;location;lat;lon;timestamp;pressure;altitude;pressure_sealevel;temperature
77355;BMP280;66422;51.202;19.936;2023-06-24T00:09:24;99474.55;;;20.01
77355;BMP280;66422;51.202;19.936;2023-06-24T00:24:43;99489.86;;;19.67
77355;BMP280;66422;51.202;19.936;2023-06-24T00:40:04;99474.88;;;19.45
77355;BMP280;66422;51.202;19.936;2023-06-24T00:55:24;99469.31;;;19.22
77355;BMP280;66422;51.202;19.936;2023-06-24T01:10:44;99490.29;;;19.50
77355;BMP280;66422;51.202;19.936;2023-06-24T01:41:59;99529.85;;;19.71
77355;BMP280;66422;51.202;19.936;2023-06-24T01:57:20;99523.42;;;18.97
77355;BMP280;66422;51.202;19.936;2023-06-24T02:12:44;99515.23;;;18.57
77355;BMP280;66422;51.202;19.936;2023-06-24T02:28:05;99507.20;;;18.44
77355;BMP280;66422;51.202;19.936;2023-06-24T02:43:27;99514.23;;;18.47
77355;BMP280;66422;51.202;19.936;2023-06-24T02:58:47;99541.66;;;18.65
77355;BMP280;66422;51.202;19.936;2023-06-24T03:14:16;99570.35;;;18.53
77355;BMP280;66422;51.202;19.936;2023-06-24T03:29:37;99583.96;;;18.73
77355;BMP280;66422;51.202;19.936;2023-06-24T03:45:04;99580.69;;;18.29
77355;BMP280;66422;51.202;19.936;2023-06-24T04:00:24;99591.73;;;18.42
77355;BMP280;66422;51.202;19.936;2023-06-24T04:15:44;99595.84;;;18.20
77355;BMP280;66422;51.202;19.936;2023-06-24T04:31:04;99610.30;;;18.38
77355;BMP280;66422;51.202;19.936;2023-06-24T04:46:23;99627.11;;;18.35
77355;BMP280;66422;51.202;19.936;2023-06-24T05:01:43;99639.92;;;18.99
77355;BMP280;66422;51.202;19.936;2023-06-24T05:17:03;99675.70;;;19.02
77355;BMP280;66422;51.202;19.936;2023-06-24T05:32:22;99695.62;;;19.00
77355;BMP280;66422;51.202;19.936;2023-06-24T05:47:42;99714.05;;;19.61
77355;BMP280;66422;51.202;19.936;2023-06-24T06:03:01;99704.60;;;19.28
77355;BMP280;66422;51.202;19.936;2023-06-24T06:18:21;99712.25;;;20.45
77355;BMP280;66422;51.202;19.936;2023-06-24T06:33:43;99713.33;;;20.95
77355;BMP280;66422;51.202;19.936;2023-06-24T06:49:02;99726.83;;;20.87
77355;BMP280;66422;51.202;19.936;2023-06-24T07:04:22;99731.59;;;20.97
77355;BMP280;66422;51.202;19.936;2023-06-24T07:19:41;99736.30;;;21.37
77355;BMP280;66422;51.202;19.936;2023-06-24T07:35:01;99739.38;;;21.22
77355;BMP280;66422;51.202;19.936;2023-06-24T07:50:21;99741.23;;;23.14
77355;BMP280;66422;51.202;19.936;2023-06-24T08:05:40;99750.05;;;22.17
77355;BMP280;66422;51.202;19.936;2023-06-24T08:21:00;99777.22;;;22.30
77355;BMP280;66422;51.202;19.936;2023-06-24T08:36:21;99804.30;;;22.14
77355;BMP280;66422;51.202;19.936;2023-06-24T08:51:44;99821.30;;;22.15
77355;BMP280;66422;51.202;19.936;2023-06-24T09:07:06;99814.30;;;23.31
77355;BMP280;66422;51.202;19.936;2023-06-24T09:22:28;99815.88;;;24.00
77355;BMP280;66422;51.202;19.936;2023-06-24T09:37:57;99812.91;;;24.63
77355;BMP280;66422;51.202;19.936;2023-06-24T09:53:19;99814.00;;;24.08
77355;BMP280;66422;51.202;19.936;2023-06-24T10:08:39;99834.79;;;24.22
77355;BMP280;66422;51.202;19.936;2023-06-24T10:23:59;99839.05;;;23.90
77355;BMP280;66422;51.202;19.936;2023-06-24T10:54:57;99839.55;;;24.60
77355;BMP280;66422;51.202;19.936;2023-06-24T11:10:17;99842.92;;;23.29
77355;BMP280;66422;51.202;19.936;2023-06-24T11:25:41;99847.15;;;23.07
77355;BMP280;66422;51.202;19.936;2023-06-24T11:41:01;99860.95;;;22.63
77355;BMP280;66422;51.202;19.936;2023-06-24T11:56:39;99864.30;;;21.76
77355;BMP280;66422;51.202;19.936;2023-06-24T12:12:00;99876.56;;;21.98
77355;BMP280;66422;51.202;19.936;2023-06-24T12:27:19;99877.75;;;21.67
77355;BMP280;66422;51.202;19.936;2023-06-24T12:42:39;99890.79;;;22.51
77355;BMP280;66422;51.202;19.936;2023-06-24T12:57:58;99901.19;;;22.31
77355;BMP280;66422;51.202;19.936;2023-06-24T13:13:18;99913.27;;;21.47
77355;BMP280;66422;51.202;19.936;2023-06-24T13:28:38;99916.40;;;21.55
77355;BMP280;66422;51.202;19.936;2023-06-24T13:44:00;99909.14;;;21.28
77355;BMP280;66422;51.202;19.936;2023-06-24T13:59:20;99910.45;;;21.68
77355;BMP280;66422;51.202;19.936;2023-06-24T14:14:40;99914.05;;;21.07
77355;BMP280;66422;51.202;19.936;2023-06-24T14:30:00;99918.65;;;20.97
77355;BMP280;66422;51.202;19.936;2023-06-24T14:45:19;99908.38;;;22.12
77355;BMP280;66422;51.202;19.936;2023-06-24T15:00:39;99908.88;;;21.55
77355;BMP280;66422;51.202;19.936;2023-06-24T15:15:59;99905.38;;;19.53
77355;BMP280;66422;51.202;19.936;2023-06-24T15:31:19;99903.83;;;18.93
77355;BMP280;66422;51.202;19.936;2023-06-24T15:46:39;99903.56;;;18.93
77355;BMP280;66422;51.202;19.936;2023-06-24T16:01:59;99911.40;;;19.47
77355;BMP280;66422;51.202;19.936;2023-06-24T16:17:19;99900.24;;;19.85
77355;BMP280;66422;51.202;19.936;2023-06-24T16:32:39;99887.65;;;19.66
77355;BMP280;66422;51.202;19.936;2023-06-24T16:47:59;99870.51;;;19.97
77355;BMP280;66422;51.202;19.936;2023-06-24T17:03:18;99868.93;;;20.49
77355;BMP280;66422;51.202;19.936;2023-06-24T17:18:38;99853.66;;;21.45
77355;BMP280;66422;51.202;19.936;2023-06-24T17:33:58;99832.98;;;21.72
77355;BMP280;66422;51.202;19.936;2023-06-24T17:49:18;99825.04;;;21.68
77355;BMP280;66422;51.202;19.936;2023-06-24T18:04:38;99821.36;;;23.63
77355;BMP280;66422;51.202;19.936;2023-06-24T18:19:57;99816.85;;;22.62
77355;BMP280;66422;51.202;19.936;2023-06-24T18:35:17;99818.16;;;20.29
77355;BMP280;66422;51.202;19.936;2023-06-24T18:50:37;99816.19;;;19.22
77355;BMP280;66422;51.202;19.936;2023-06-24T19:05:57;99826.04;;;18.60
77355;BMP280;66422;51.202;19.936;2023-06-24T19:21:17;99837.16;;;17.73
77355;BMP280;66422;51.202;19.936;2023-06-24T19:36:36;99845.45;;;17.40
77355;BMP280;66422;51.202;19.936;2023-06-24T19:51:56;99836.23;;;16.86
77355;BMP280;66422;51.202;19.936;2023-06-24T20:07:16;99844.33;;;16.59
77355;BMP280;66422;51.202;19.936;2023-06-24T20:22:36;99838.71;;;16.10
77355;BMP280;66422;51.202;19.936;2023-06-24T20:37:55;99830.60;;;15.67
77355;BMP280;66422;51.202;19.936;2023-06-24T20:53:15;99822.27;;;15.68
77355;BMP280;66422;51.202;19.936;2023-06-24T21:08:35;99814.19;;;15.47
77355;BMP280;66422;51.202;19.936;2023-06-24T21:23:55;99812.40;;;15.49
77355;BMP280;66422;51.202;19.936;2023-06-24T21:39:14;99810.44;;;15.34
77355;BMP280;66422;51.202;19.936;2023-06-24T21:54:34;99805.98;;;15.06
77355;BMP280;66422;51.202;19.936;2023-06-24T22:09:53;99811.44;;;15.19
77355;BMP280;66422;51.202;19.936;2023-06-24T22:25:13;99813.90;;;15.15
77355;BMP280;66422;51.202;19.936;2023-06-24T22:40:33;99817.84;;;14.87
77355;BMP280;66422;51.202;19.936;2023-06-24T22:55:52;99806.86;;;14.74
77355;BMP280;66422;51.202;19.936;2023-06-24T23:11:12;99794.48;;;14.60
77355;BMP280;66422;51.202;19.936;2023-06-24T23:26:32;99779.75;;;14.33
77355;BMP280;66422;51.202;19.936;2023-06-24T23:41:59;99771.98;;;14.56
77355;BMP280;66422;51.202;19.936;2023-06-24T23:57:19;99759.30;;;14.14
